Time;durP1;ratioP1;P1;durP2;ratioP2;P2;SDS_P1;SDS_P2;PMS_P1;PMS_P2;Temp;Humidity;BMP_temperature;BMP_pressure;BME280_temperature;BME280_humidity;BME280_pressure;Samples;Min_cycle;Max_cycle;Signal;HPM_P1;HPM_P2
2022/04/18 00:02:50;;;;;;;6.03;5.43;;;9.00;44.30;;;;;;6130760;29;20483;-64
2022/04/18 00:05:53;;;;;;;5.20;4.70;;;9.00;44.80;;;;;;6130587;29;20480;-64
2022/04/18 00:08:56;;;;;;;5.13;4.73;;;9.00;45.00;;;;;;6130422;29;20564;-61
2022/04/18 00:12:00;;;;;;;5.40;5.00;;;8.90;45.40;;;;;;6130457;29;20471;-63
2022/04/18 00:15:05;;;;;;;6.23;4.60;;;8.80;45.80;;;;;;6130386;29;20483;-64
2022/04/18 00:18:08;;;;;;;5.70;5.10;;;8.80;46.40;;;;;;6130391;29;20484;-64
2022/04/18 00:21:11;;;;;;;5.60;4.70;;;8.70;46.50;;;;;;6130332;29;20486;-64
2022/04/18 00:24:16;;;;;;;6.63;4.63;;;8.60;46.70;;;;;;6130134;29;20491;-64
2022/04/18 00:27:19;;;;;;;5.60;5.10;;;8.60;47.00;;;;;;6129958;29;20483;-64
2022/04/18 00:30:24;;;;;;;5.67;4.90;;;8.50;47.20;;;;;;6125559;29;20487;-63
2022/04/18 00:33:27;;;;;;;5.57;5.10;;;8.50;47.40;;;;;;6129296;29;20464;-63
2022/04/18 00:36:30;;;;;;;5.13;4.57;;;8.50;47.40;;;;;;6130179;29;20491;-63
2022/04/18 00:39:34;;;;;;;6.70;4.90;;;8.40;47.60;;;;;;6129611;29;20447;-64
2022/04/18 00:42:37;;;;;;;5.50;5.00;;;8.30;47.60;;;;;;6129900;29;20476;-63
2022/04/18 00:45:41;;;;;;;5.67;4.80;;;8.30;47.60;;;;;;6129889;29;20459;-61
2022/04/18 00:48:47;;;;;;;6.10;4.47;;;8.30;47.90;;;;;;6129912;29;20559;-62
2022/04/18 00:51:50;;;;;;;5.30;4.80;;;8.20;48.30;;;;;;6129477;29;21062;-62
2022/04/18 00:54:55;;;;;;;5.73;5.23;;;8.20;48.50;;;;;;6128940;29;20478;-62
2022/04/18 00:58:01;;;;;;;5.60;4.80;;;8.20;49.20;;;;;;6129315;29;20783;-61
2022/04/18 01:01:06;;;;;;;5.43;4.93;;;8.00;48.90;;;;;;6129914;29;20491;-60
2022/04/18 01:04:09;;;;;;;9.53;5.23;;;7.90;49.50;;;;;;6129316;29;20952;-60
2022/04/18 01:07:13;;;;;;;5.27;4.87;;;7.80;49.70;;;;;;6129454;29;20483;-61
2022/04/18 01:10:16;;;;;;;6.30;5.70;;;7.80;50.00;;;;;;6129629;29;20476;-61
2022/04/18 01:13:19;;;;;;;5.70;5.10;;;7.80;50.10;;;;;;6129045;29;20829;-63
2022/04/18 01:16:23;;;;;;;6.10;5.60;;;7.70;50.30;;;;;;6128964;29;20972;-62
2022/04/18 01:19:27;;;;;;;5.90;5.00;;;7.80;50.20;;;;;;6129210;29;20467;-62
2022/04/18 01:22:32;;;;;;;8.60;7.90;;;7.70;50.20;;;;;;6127313;29;20960;-62
2022/04/18 01:29:05;;;;;;;5.37;4.87;;;7.50;50.30;;;;;;6127678;29;20480;-61
2022/04/18 01:32:09;;;;;;;5.50;5.00;;;7.50;51.30;;;;;;6127191;29;20476;-61
2022/04/18 01:35:12;;;;;;;6.00;5.40;;;7.40;51.70;;;;;;6123701;29;20479;-60
2022/04/18 01:38:17;;;;;;;6.90;6.20;;;7.30;52.10;;;;;;6128534;29;20472;-60
2022/04/18 01:41:20;;;;;;;5.93;5.13;;;7.30;52.30;;;;;;6127613;29;21210;-62
2022/04/18 01:44:24;;;;;;;5.70;5.20;;;7.30;52.30;;;;;;6128706;29;20490;-62
2022/04/18 01:47:27;;;;;;;5.47;4.90;;;7.20;52.60;;;;;;6132105;29;20476;-62
2022/04/18 01:50:30;;;;;;;6.17;5.27;;;7.20;52.50;;;;;;6132204;29;20475;-62
2022/04/18 01:53:34;;;;;;;6.47;5.57;;;7.10;52.70;;;;;;6131725;29;20804;-59
2022/04/18 01:56:37;;;;;;;5.73;5.30;;;7.00;52.80;;;;;;6133298;29;21017;-62
2022/04/18 01:59:42;;;;;;;5.73;5.23;;;7.00;52.90;;;;;;6133522;29;20490;-60
2022/04/18 02:02:45;;;;;;;6.00;5.30;;;7.00;53.60;;;;;;6133412;29;20491;-64
2022/04/18 02:05:50;;;;;;;8.33;5.90;;;7.00;53.10;;;;;;6133066;29;21007;-60
2022/04/18 02:08:55;;;;;;;5.17;4.77;;;6.90;53.00;;;;;;6132501;29;20991;-60
2022/04/18 02:11:58;;;;;;;6.00;5.40;;;6.80;53.50;;;;;;6132963;29;20983;-60
2022/04/18 02:15:01;;;;;;;6.07;5.47;;;6.80;54.50;;;;;;6133347;29;20526;-60
2022/04/18 02:18:04;;;;;;;6.13;5.63;;;6.80;54.00;;;;;;6132723;29;20502;-60
2022/04/18 02:21:11;;;;;;;5.97;4.93;;;6.70;54.90;;;;;;6132881;29;20471;-60
2022/04/18 02:24:16;;;;;;;7.87;6.10;;;6.70;54.20;;;;;;6132529;29;20798;-60
2022/04/18 02:27:19;;;;;;;6.33;5.77;;;6.60;54.40;;;;;;6133030;29;20487;-62
2022/04/18 02:30:22;;;;;;;5.57;5.03;;;6.60;54.70;;;;;;6132663;29;20479;-62
2022/04/18 02:33:25;;;;;;;6.40;5.73;;;6.60;54.90;;;;;;6132131;29;20872;-62
2022/04/18 02:36:28;;;;;;;5.47;5.03;;;6.50;54.90;;;;;;6124295;29;20479;-62
2022/04/18 02:39:32;;;;;;;5.83;5.23;;;6.40;55.00;;;;;;6133313;29;20763;-62
2022/04/18 02:42:36;;;;;;;5.63;5.10;;;6.40;55.30;;;;;;6133132;29;20482;-62
2022/04/18 02:45:39;;;;;;;6.00;5.50;;;6.30;55.60;;;;;;6132272;29;20451;-62
2022/04/18 02:48:44;;;;;;;6.90;6.40;;;6.30;55.90;;;;;;6132751;29;20451;-60
2022/04/18 02:51:47;;;;;;;5.43;4.93;;;6.20;55.80;;;;;;6132041;29;20471;-60
2022/04/18 02:54:52;;;;;;;5.40;4.90;;;6.20;55.80;;;;;;6132325;29;20487;-60
2022/04/18 02:57:55;;;;;;;5.63;5.13;;;6.20;56.50;;;;;;6131873;29;20482;-60
2022/04/18 03:00:58;;;;;;;4.97;4.57;;;6.10;56.30;;;;;;6132356;29;20968;-60
2022/04/18 03:04:01;;;;;;;6.50;5.03;;;6.10;56.60;;;;;;6132107;29;20471;-60
2022/04/18 03:07:05;;;;;;;6.13;5.20;;;6.00;56.80;;;;;;6132023;29;20472;-60
2022/04/18 03:10:10;;;;;;;5.60;5.10;;;6.00;56.80;;;;;;6131575;29;20490;-60
2022/04/18 03:13:14;;;;;;;6.20;5.70;;;6.00;57.00;;;;;;6133764;29;20475;-63
2022/04/18 03:16:18;;;;;;;8.90;4.80;;;5.90;57.70;;;;;;6131918;29;20576;-63
2022/04/18 03:19:21;;;;;;;5.43;4.93;;;5.90;57.20;;;;;;6132231;29;20487;-63
2022/04/18 03:22:25;;;;;;;5.23;4.80;;;5.80;57.50;;;;;;6132288;29;20843;-62
2022/04/18 03:25:29;;;;;;;6.13;5.63;;;5.80;57.80;;;;;;6131862;29;20471;-62
2022/04/18 03:28:34;;;;;;;8.27;5.33;;;5.80;58.60;;;;;;6130836;29;20487;-63
2022/04/18 03:31:37;;;;;;;5.47;4.97;;;5.80;58.20;;;;;;6130251;29;20480;-63
2022/04/18 03:34:40;;;;;;;5.67;4.30;;;5.70;58.30;;;;;;6129933;29;20483;-60
2022/04/18 03:41:05;;;;;;;7.43;5.27;;;5.70;58.80;;;;;;6130296;29;20483;-61
2022/04/18 03:44:09;;;;;;;5.10;4.50;;;5.70;58.70;;;;;;6130301;29;20483;-61
2022/04/18 03:47:12;;;;;;;4.57;4.13;;;5.70;58.90;;;;;;6131703;29;20813;-61
2022/04/18 03:50:15;;;;;;;4.73;4.30;;;5.70;59.00;;;;;;6131332;29;20483;-61
2022/04/18 03:53:18;;;;;;;4.90;4.50;;;5.60;58.90;;;;;;6130736;29;20991;-61
2022/04/18 03:56:23;;;;;;;8.80;4.27;;;5.60;59.30;;;;;;6130138;29;20487;-61
2022/04/18 03:59:26;;;;;;;5.83;5.30;;;5.60;59.50;;;;;;6130637;29;20479;-63
2022/04/18 04:02:29;;;;;;;6.10;5.50;;;5.50;59.50;;;;;;6132595;29;20494;-62
2022/04/18 04:05:32;;;;;;;5.43;4.97;;;5.50;59.70;;;;;;6131015;29;20611;-62
2022/04/18 04:08:35;;;;;;;5.70;5.20;;;5.40;60.30;;;;;;6129745;29;20479;-60
2022/04/18 04:11:39;;;;;;;5.20;4.70;;;5.30;61.60;;;;;;6130254;29;20483;-59
2022/04/18 04:14:42;;;;;;;6.20;5.20;;;5.30;61.10;;;;;;6130296;29;20491;-60
2022/04/18 04:17:45;;;;;;;5.93;5.43;;;5.30;61.50;;;;;;6130395;29;20802;-61
2022/04/18 04:20:55;;;;;;;4.40;4.07;;;5.30;62.00;;;;;;6130408;29;20621;-61
2022/04/18 04:23:58;;;;;;;6.10;5.50;;;5.30;63.10;;;;;;6130254;29;20483;-64
2022/04/18 04:27:02;;;;;;;5.50;5.00;;;5.30;62.70;;;;;;6130057;29;20976;-64
2022/04/18 04:30:06;;;;;;;4.70;4.30;;;5.30;62.60;;;;;;6129953;29;20603;-64
2022/04/18 04:33:09;;;;;;;5.20;4.70;;;5.30;62.80;;;;;;6130484;29;20488;-63
2022/04/18 04:36:13;;;;;;;4.40;4.00;;;5.30;62.90;;;;;;6130845;29;20482;-63
2022/04/18 04:39:17;;;;;;;4.80;4.40;;;5.20;62.80;;;;;;6131391;29;20959;-63
2022/04/18 04:42:21;;;;;;;5.17;4.13;;;5.40;63.10;;;;;;6131454;29;20480;-62
2022/04/18 04:45:24;;;;;;;6.73;5.40;;;5.30;63.00;;;;;;6122239;29;20479;-63
2022/04/18 04:48:28;;;;;;;4.53;4.13;;;5.30;63.00;;;;;;6125446;29;20561;-61
2022/04/18 04:51:31;;;;;;;5.73;4.83;;;5.30;63.60;;;;;;6129480;29;20452;-61
2022/04/18 04:54:35;;;;;;;6.83;5.00;;;5.30;64.60;;;;;;6129467;29;20925;-61
2022/04/18 04:57:39;;;;;;;4.73;4.30;;;5.40;64.70;;;;;;6129398;29;20505;-61
2022/04/18 05:00:43;;;;;;;4.87;4.33;;;5.40;63.90;;;;;;6129328;29;20450;-60
2022/04/18 05:03:46;;;;;;;4.53;4.13;;;5.40;64.10;;;;;;6129725;29;20471;-62
2022/04/18 05:06:49;;;;;;;4.80;4.10;;;5.50;64.40;;;;;;6129525;29;20463;-62
2022/04/18 05:09:52;;;;;;;5.20;4.30;;;5.60;64.50;;;;;;6129154;29;20979;-62
2022/04/18 05:12:57;;;;;;;5.43;4.47;;;5.70;64.40;;;;;;6129417;29;20471;-62
2022/04/18 05:16:00;;;;;;;5.07;4.57;;;5.80;64.30;;;;;;6131237;29;20586;-65
2022/04/18 05:19:03;;;;;;;6.00;4.80;;;5.90;64.70;;;;;;6134345;29;20475;-64
2022/04/18 05:22:06;;;;;;;5.10;4.50;;;6.10;63.10;;;;;;6136102;29;20490;-65
2022/04/18 05:25:10;;;;;;;10.67;5.50;;;6.20;62.50;;;;;;6135838;29;20475;-65
2022/04/18 05:28:15;;;;;;;7.90;4.90;;;6.40;62.50;;;;;;6135495;29;20475;-66
2022/04/18 05:31:19;;;;;;;5.70;4.77;;;6.70;61.00;;;;;;6136731;29;20476;-66
2022/04/18 05:34:22;;;;;;;4.60;4.20;;;6.70;60.40;;;;;;6135459;29;20503;-65
2022/04/18 05:37:25;;;;;;;9.90;4.70;;;6.90;60.10;;;;;;6135077;29;20956;-66
2022/04/18 05:40:28;;;;;;;4.07;3.77;;;7.10;59.80;;;;;;6134488;29;20475;-65
2022/04/18 05:43:33;;;;;;;6.30;4.57;;;7.40;59.10;;;;;;6134313;29;20923;-63
2022/04/18 05:46:40;;;;;;;5.23;4.70;;;8.00;58.80;;;;;;6125634;29;20487;-60
2022/04/18 05:49:43;;;;;;;4.80;4.30;;;8.90;57.10;;;;;;6133470;29;20490;-61
2022/04/18 05:52:47;;;;;;;5.43;4.17;;;10.10;54.00;;;;;;6133472;29;20661;-62
2022/04/18 05:55:50;;;;;;;6.13;5.33;;;11.10;51.10;;;;;;6133026;29;20483;-62
2022/04/18 05:58:55;;;;;;;4.33;3.93;;;12.10;48.50;;;;;;6133088;29;20862;-63
2022/04/18 06:01:59;;;;;;;4.93;3.43;;;12.90;46.00;;;;;;6133364;29;20560;-64
2022/04/18 06:05:02;;;;;;;5.50;3.80;;;13.60;44.00;;;;;;6133539;29;20490;-65
2022/04/18 06:08:05;;;;;;;6.77;3.83;;;14.20;42.10;;;;;;6133704;29;20468;-65
2022/04/18 06:11:09;;;;;;;4.23;3.87;;;14.70;40.40;;;;;;6134124;29;20483;-66
2022/04/18 06:14:13;;;;;;;4.90;3.97;;;15.30;39.20;;;;;;6133769;29;20820;-64
2022/04/18 06:17:16;;;;;;;3.93;3.53;;;15.90;38.70;;;;;;6133524;29;20960;-64
2022/04/18 06:20:19;;;;;;;4.10;3.70;;;16.70;36.70;;;;;;6133258;29;20471;-65
2022/04/18 06:23:22;;;;;;;4.93;3.43;;;17.00;35.50;;;;;;6133304;29;20471;-61
2022/04/18 06:26:26;;;;;;;3.80;3.37;;;17.80;35.00;;;;;;6132709;29;20494;-62
2022/04/18 06:29:30;;;;;;;3.80;3.37;;;18.50;33.40;;;;;;6131102;29;20467;-65
2022/04/18 06:32:36;;;;;;;3.90;3.43;;;19.40;32.50;;;;;;6130785;29;20239;-64
2022/04/18 06:35:41;;;;;;;5.33;3.80;;;20.00;30.60;;;;;;6130855;29;20707;-63
2022/04/18 06:38:45;;;;;;;4.20;3.80;;;20.70;29.50;;;;;;6131414;29;20236;-63
2022/04/18 06:41:48;;;;;;;3.60;3.30;;;21.40;28.40;;;;;;6130555;29;20691;-63
2022/04/18 06:44:52;;;;;;;3.33;3.03;;;22.00;27.20;;;;;;6130655;29;20236;-63
2022/04/18 06:47:55;;;;;;;3.77;3.47;;;22.40;26.20;;;;;;6128403;29;20235;-63
2022/04/18 06:50:58;;;;;;;3.93;3.63;;;23.00;26.20;;;;;;6126462;29;20220;-62
2022/04/18 06:54:01;;;;;;;5.30;4.10;;;23.30;25.10;;;;;;6129245;29;20240;-63
2022/04/18 06:57:05;;;;;;;4.77;3.10;;;23.90;24.90;;;;;;6122573;29;20243;-62
2022/04/18 07:00:10;;;;;;;3.03;2.80;;;24.60;24.40;;;;;;6118096;29;20247;-63
2022/04/18 07:03:13;;;;;;;3.20;2.53;;;25.30;23.30;;;;;;6109716;29;20236;-64
2022/04/18 07:06:16;;;;;;;4.43;3.57;;;25.80;22.80;;;;;;6116278;29;20231;-64
2022/04/18 07:09:20;;;;;;;3.10;2.80;;;26.20;22.40;;;;;;6117686;29;20220;-64
2022/04/18 07:12:23;;;;;;;2.40;2.20;;;26.50;20.80;;;;;;6120961;29;20228;-65
2022/04/18 07:15:28;;;;;;;2.90;2.70;;;25.90;20.50;;;;;;6119482;29;20231;-64
2022/04/18 07:18:31;;;;;;;2.47;2.27;;;24.70;20.60;;;;;;6131703;29;20228;-66
2022/04/18 07:21:34;;;;;;;3.50;2.83;;;24.50;20.90;;;;;;6131469;29;20216;-65
2022/04/18 07:24:37;;;;;;;2.33;2.13;;;23.70;21.20;;;;;;6131697;29;20552;-63
2022/04/18 07:27:40;;;;;;;4.00;2.73;;;23.40;21.60;;;;;;6131646;29;20215;-64
2022/04/18 07:30:45;;;;;;;2.30;2.10;;;22.50;22.40;;;;;;6131239;29;20215;-64
2022/04/18 07:33:48;;;;;;;3.03;2.73;;;21.70;24.10;;;;;;6131440;29;20235;-64
2022/04/18 07:36:51;;;;;;;2.87;2.40;;;20.70;23.60;;;;;;6131558;29;20235;-64
2022/04/18 07:39:54;;;;;;;6.13;2.90;;;19.60;24.60;;;;;;6130831;29;20622;-62
2022/04/18 07:42:57;;;;;;;3.23;2.30;;;18.90;25.00;;;;;;6132255;29;20238;-65
2022/04/18 07:46:02;;;;;;;3.00;2.80;;;18.30;25.60;;;;;;6131476;29;20247;-63
2022/04/18 07:49:08;;;;;;;2.87;2.23;;;17.80;26.30;;;;;;6129654;29;20238;-64
2022/04/18 07:52:12;;;;;;;2.73;2.53;;;17.00;27.20;;;;;;6120539;29;20936;-64
2022/04/18 07:55:18;;;;;;;4.33;1.93;;;16.20;28.70;;;;;;6124246;29;20865;-64
2022/04/18 07:58:21;;;;;;;3.00;2.30;;;15.50;28.50;;;;;;6130593;29;20988;-64
2022/04/18 08:01:26;;;;;;;2.13;1.73;;;15.00;28.30;;;;;;6130686;29;20483;-64
2022/04/18 08:04:29;;;;;;;3.33;1.60;;;14.50;28.60;;;;;;6130856;29;20483;-63
2022/04/18 08:07:32;;;;;;;1.60;1.50;;;14.10;28.60;;;;;;6130930;29;20491;-66
2022/04/18 08:10:36;;;;;;;1.97;1.87;;;13.80;29.00;;;;;;6129537;29;20487;-67
2022/04/18 08:13:40;;;;;;;3.67;2.20;;;13.60;29.50;;;;;;6129978;29;20488;-65
2022/04/18 08:16:45;;;;;;;2.80;2.30;;;13.60;29.60;;;;;;6129966;29;20472;-64
2022/04/18 08:19:48;;;;;;;1.90;1.80;;;13.50;30.20;;;;;;6130032;29;20999;-66
2022/04/18 08:22:51;;;;;;;2.13;1.67;;;13.60;30.00;;;;;;6131160;29;20479;-65
2022/04/18 08:25:54;;;;;;;1.83;1.73;;;13.80;29.60;;;;;;6131351;29;20476;-67
2022/04/18 08:28:58;;;;;;;2.37;2.17;;;16.10;29.30;;;;;;6130596;29;20824;-63
2022/04/18 08:32:04;;;;;;;3.20;2.30;;;18.40;26.20;;;;;;6129924;29;20995;-63
2022/04/18 08:35:09;;;;;;;1.73;1.53;;;18.20;25.00;;;;;;6129722;29;20483;-65
2022/04/18 08:38:12;;;;;;;2.73;2.50;;;17.70;25.20;;;;;;6130107;29;20836;-65
2022/04/18 08:41:21;;;;;;;2.70;2.00;;;17.10;26.50;;;;;;6129552;29;20798;-64
2022/04/18 08:44:27;;;;;;;3.10;2.07;;;16.50;26.20;;;;;;6129461;29;20495;-62
2022/04/18 08:54:15;;;;;;;2.20;2.00;;;15.40;28.10;;;;;;6128948;29;20499;-65
2022/04/18 08:57:18;;;;;;;4.27;2.13;;;15.20;28.10;;;;;;6128278;29;20475;-64
2022/04/18 09:00:21;;;;;;;2.83;1.80;;;15.00;28.40;;;;;;6127970;29;20487;-64
2022/04/18 09:03:26;;;;;;;3.30;1.60;;;14.90;28.30;;;;;;6126273;29;20471;-64
2022/04/18 09:06:30;;;;;;;2.20;1.87;;;14.90;28.80;;;;;;6129198;29;20802;-64
2022/04/18 09:09:37;;;;;;;2.47;2.20;;;14.80;28.40;;;;;;6126502;29;20925;-63
2022/04/18 09:12:42;;;;;;;2.53;1.37;;;14.70;29.10;;;;;;6128441;29;20799;-63
2022/04/18 09:15:48;;;;;;;2.23;1.40;;;14.70;29.40;;;;;;6129119;29;20447;-63
2022/04/18 09:19:05;;;;;;;2.13;1.60;;;14.70;29.70;;;;;;6130285;29;20523;-63
2022/04/18 09:22:08;;;;;;;1.83;1.70;;;15.50;29.60;;;;;;6138070;29;20472;-63
2022/04/18 09:25:16;;;;;;;3.20;2.00;;;16.60;28.50;;;;;;6129063;29;20480;-61
2022/04/18 09:28:23;;;;;;;2.30;2.10;;;17.00;27.90;;;;;;6128863;29;20483;-64
2022/04/18 09:31:27;;;;;;;1.93;1.50;;;17.20;27.20;;;;;;6128754;29;20475;-63
2022/04/18 09:34:32;;;;;;;1.67;1.57;;;16.90;27.10;;;;;;6112030;29;20483;-63
2022/04/18 09:37:36;;;;;;;1.60;1.47;;;16.70;27.10;;;;;;6128617;29;20467;-61
2022/04/18 09:40:39;;;;;;;2.07;1.80;;;16.70;27.30;;;;;;6128317;29;20924;-60
2022/04/18 09:43:44;;;;;;;1.83;1.70;;;16.60;27.60;;;;;;6128293;29;20483;-60
2022/04/18 09:46:47;;;;;;;2.00;1.90;;;16.20;27.70;;;;;;6128262;29;20476;-62
2022/04/18 09:49:52;;;;;;;1.57;1.47;;;15.90;28.00;;;;;;6128453;29;20480;-64
2022/04/18 09:52:55;;;;;;;2.13;1.77;;;15.60;28.00;;;;;;6128231;29;20980;-63
2022/04/18 09:55:58;;;;;;;2.43;2.17;;;15.40;28.40;;;;;;6128332;29;20494;-64
2022/04/18 09:59:04;;;;;;;2.30;2.10;;;15.10;29.20;;;;;;6128932;29;20475;-64
2022/04/18 10:02:13;;;;;;;2.30;2.10;;;14.80;29.30;;;;;;6119155;29;20924;-63
2022/04/18 10:05:19;;;;;;;3.17;1.77;;;14.40;29.60;;;;;;6130382;29;20487;-61
2022/04/18 10:08:22;;;;;;;2.17;1.90;;;14.30;30.80;;;;;;6132893;29;20989;-61
2022/04/18 10:11:25;;;;;;;4.50;2.33;;;14.10;30.70;;;;;;6132870;29;20487;-60
2022/04/18 10:14:29;;;;;;;2.70;2.10;;;13.90;30.90;;;;;;6133089;29;20487;-59
2022/04/18 10:17:36;;;;;;;2.30;2.10;;;13.70;30.90;;;;;;6132691;29;20494;-64
2022/04/18 10:20:53;;;;;;;3.17;2.20;;;13.70;31.80;;;;;;6133431;29;20498;-63
2022/04/18 10:24:33;;;;;;;2.10;1.90;;;13.70;31.50;;;;;;6132854;29;20531;-62
2022/04/18 10:28:01;;;;;;;2.10;2.00;;;13.70;31.90;;;;;;6132859;29;20464;-62
2022/04/18 10:31:10;;;;;;;1.80;1.70;;;13.60;32.40;;;;;;6132323;29;20479;-66
2022/04/18 10:34:14;;;;;;;3.20;2.00;;;13.60;33.00;;;;;;6132244;29;20825;-61
2022/04/18 10:37:24;;;;;;;1.90;1.80;;;13.60;32.20;;;;;;6132097;29;20855;-63
2022/04/18 10:40:28;;;;;;;1.90;1.63;;;13.70;32.10;;;;;;6132449;29;20480;-61
2022/04/18 10:44:00;;;;;;;2.30;1.90;;;13.90;32.30;;;;;;6132541;29;20476;-62
2022/04/18 10:47:04;;;;;;;2.70;1.87;;;14.10;31.70;;;;;;6132400;29;20494;-61
2022/04/18 10:50:18;;;;;;;2.57;1.93;;;14.40;31.30;;;;;;6132227;29;20530;-61
2022/04/18 10:53:36;;;;;;;3.17;1.80;;;14.80;31.50;;;;;;6131970;29;20794;-61
2022/04/18 10:56:53;;;;;;;2.90;1.83;;;15.40;30.60;;;;;;6131912;29;20476;-60
2022/04/18 10:59:57;;;;;;;1.47;1.37;;;16.10;30.00;;;;;;6131897;29;20487;-61
2022/04/18 11:03:00;;;;;;;1.83;1.70;;;16.80;28.90;;;;;;6131160;29;20800;-61
2022/04/18 11:06:04;;;;;;;2.00;1.90;;;17.20;28.60;;;;;;6147546;29;20490;-62
2022/04/18 11:09:10;;;;;;;2.37;1.70;;;17.30;28.10;;;;;;6155509;28;20487;-62
2022/04/18 11:12:14;;;;;;;3.00;2.17;;;17.10;28.10;;;;;;6107889;29;20468;-64
2022/04/18 11:15:17;;;;;;;2.53;2.33;;;16.90;27.70;;;;;;6108004;29;20468;-65
2022/04/18 11:18:29;;;;;;;1.67;1.57;;;16.60;27.90;;;;;;6117728;29;20986;-63
2022/04/18 11:22:07;;;;;;;2.80;1.93;;;16.80;28.60;;;;;;6131611;29;20490;-63
2022/04/18 11:25:12;;;;;;;3.83;1.80;;;17.40;28.40;;;;;;6135146;29;20467;-63
2022/04/18 11:28:16;;;;;;;2.20;1.70;;;17.90;27.90;;;;;;6134664;29;20476;-64
2022/04/18 11:31:21;;;;;;;1.80;1.70;;;18.00;27.50;;;;;;6136522;29;20475;-64
2022/04/18 11:34:27;;;;;;;2.87;2.17;;;17.70;27.70;;;;;;6137988;29;20488;-63
2022/04/18 11:37:33;;;;;;;1.90;1.80;;;17.60;27.90;;;;;;6142082;29;20227;-62
2022/04/18 11:40:39;;;;;;;1.73;1.60;;;17.20;27.40;;;;;;6139129;29;20251;-62
2022/04/18 11:43:43;;;;;;;2.53;2.33;;;16.70;28.00;;;;;;6135455;29;20972;-62
2022/04/18 11:46:46;;;;;;;2.00;1.40;;;16.60;28.50;;;;;;6134606;29;20968;-63
2022/04/18 11:49:53;;;;;;;1.70;1.60;;;16.70;28.50;;;;;;6129558;29;20472;-63
2022/04/18 11:53:02;;;;;;;1.90;1.77;;;16.60;28.80;;;;;;6133288;29;20490;-61
2022/04/18 11:56:07;;;;;;;1.93;1.73;;;16.30;29.40;;;;;;6130682;29;20495;-60
2022/04/18 11:59:10;;;;;;;1.93;1.73;;;16.00;29.30;;;;;;6108880;29;20777;-59
2022/04/18 12:09:01;;;;;;;3.10;1.77;;;15.20;30.40;;;;;;6093957;29;20806;-61
2022/04/18 12:12:06;;;;;;;2.53;1.90;;;15.00;30.50;;;;;;6106480;29;20866;-61
2022/04/18 12:15:09;;;;;;;2.50;1.90;;;15.00;31.40;;;;;;6106715;29;20483;-61
2022/04/18 12:18:15;;;;;;;2.40;2.20;;;14.80;31.30;;;;;;6106437;29;20477;-60
2022/04/18 12:21:18;;;;;;;1.70;1.60;;;14.60;31.50;;;;;;6106162;29;20480;-60
2022/04/18 12:24:21;;;;;;;2.50;2.30;;;14.60;32.00;;;;;;6106379;29;20972;-60
2022/04/18 12:27:39;;;;;;;3.63;1.80;;;14.80;32.00;;;;;;6105379;29;20472;-60
2022/04/18 12:30:43;;;;;;;2.40;2.20;;;15.50;31.70;;;;;;6105948;29;20465;-60
2022/04/18 12:33:48;;;;;;;3.60;2.67;;;16.10;31.30;;;;;;6106175;29;20465;-60
2022/04/18 12:36:57;;;;;;;3.27;2.00;;;16.50;30.20;;;;;;6106323;29;20465;-60
2022/04/18 12:40:10;;;;;;;3.00;2.50;;;16.80;30.20;;;;;;6106087;29;20481;-60
2022/04/18 12:43:16;;;;;;;2.37;1.70;;;17.10;30.00;;;;;;6105779;29;20481;-60
2022/04/18 12:46:29;;;;;;;2.80;2.10;;;17.30;29.70;;;;;;6106276;29;20523;-60
2022/04/18 12:49:32;;;;;;;2.77;2.10;;;17.60;29.50;;;;;;6106016;29;20500;-61
2022/04/18 12:52:44;;;;;;;5.00;2.57;;;17.40;29.80;;;;;;6105323;29;20504;-61
2022/04/18 12:55:48;;;;;;;3.27;2.30;;;16.90;29.90;;;;;;6123567;29;20499;-60
2022/04/18 12:59:03;;;;;;;2.50;2.00;;;16.70;30.10;;;;;;6129249;29;20853;-61
2022/04/18 13:02:07;;;;;;;14.53;6.83;;;16.50;30.10;;;;;;6129196;29;20809;-62
2022/04/18 13:05:11;;;;;;;21.40;8.40;;;16.40;33.00;;;;;;6130062;29;20480;-61
2022/04/18 13:08:16;;;;;;;26.43;11.30;;;16.40;35.00;;;;;;6128985;29;20479;-61
2022/04/18 13:11:19;;;;;;;13.27;6.20;;;16.50;36.30;;;;;;6124190;29;20471;-61
2022/04/18 13:14:23;;;;;;;5.67;3.50;;;16.80;34.80;;;;;;6127347;29;20488;-61
2022/04/18 13:17:27;;;;;;;5.00;2.20;;;16.90;32.90;;;;;;6127348;29;20490;-61
2022/04/18 13:20:30;;;;;;;1.77;1.67;;;16.80;32.70;;;;;;6128268;29;20479;-61
2022/04/18 13:23:33;;;;;;;2.27;1.90;;;16.70;31.80;;;;;;6126538;29;20818;-61
2022/04/18 13:26:37;;;;;;;1.80;1.50;;;16.80;31.80;;;;;;6127441;29;20491;-60
2022/04/18 13:29:42;;;;;;;2.03;1.67;;;16.80;30.90;;;;;;6129458;29;20482;-60
2022/04/18 13:32:45;;;;;;;2.10;1.50;;;16.70;32.00;;;;;;6129664;29;20498;-60
2022/04/18 13:39:09;;;;;;;2.03;1.70;;;16.40;32.50;;;;;;6131710;29;20479;-60
2022/04/18 13:42:12;;;;;;;1.43;1.30;;;16.30;31.60;;;;;;6133457;29;20846;-60
2022/04/18 13:45:17;;;;;;;2.90;1.50;;;16.20;32.20;;;;;;6133906;29;20486;-61
2022/04/18 13:48:21;;;;;;;1.67;1.50;;;16.40;32.80;;;;;;6133316;29;21002;-60
2022/04/18 13:51:26;;;;;;;1.67;1.57;;;16.50;32.60;;;;;;6133875;29;20475;-62
2022/04/18 13:54:29;;;;;;;1.73;1.30;;;16.40;31.80;;;;;;6131087;29;20499;-61
2022/04/18 13:57:32;;;;;;;1.43;1.33;;;16.30;32.00;;;;;;6110340;29;20456;-61
2022/04/18 14:00:37;;;;;;;4.30;1.50;;;16.20;32.70;;;;;;6110466;29;20810;-61
2022/04/18 14:03:40;;;;;;;1.67;1.53;;;16.10;32.10;;;;;;6110375;29;20492;-62
2022/04/18 14:06:45;;;;;;;1.33;1.23;;;16.00;32.50;;;;;;6109844;29;20459;-61
2022/04/18 14:09:48;;;;;;;1.10;1.10;;;16.00;32.60;;;;;;6109834;29;20453;-61
2022/04/18 14:13:11;;;;;;;1.33;1.23;;;16.00;32.90;;;;;;6130395;29;20554;-60
2022/04/18 14:22:57;;;;;;;1.30;1.17;;;15.90;32.50;;;;;;6133089;29;20484;-60
2022/04/18 14:26:00;;;;;;;1.30;1.20;;;15.90;33.20;;;;;;6132613;29;20491;-62
2022/04/18 14:29:06;;;;;;;1.90;1.50;;;15.90;32.10;;;;;;6132980;29;20480;-60
2022/04/18 14:32:10;;;;;;;1.67;1.53;;;15.80;32.10;;;;;;6132365;29;21031;-60
2022/04/18 14:35:15;;;;;;;1.40;1.30;;;15.70;32.30;;;;;;6132799;29;20479;-63
2022/04/18 14:38:18;;;;;;;1.20;1.10;;;15.50;32.20;;;;;;6132724;29;20571;-63
2022/04/18 14:41:21;;;;;;;2.07;0.90;;;15.40;32.70;;;;;;6132169;29;20472;-64
2022/04/18 14:44:24;;;;;;;1.53;1.20;;;15.50;32.80;;;;;;6131919;29;20502;-64
2022/04/18 14:47:29;;;;;;;1.60;1.40;;;15.70;32.40;;;;;;6132415;29;20475;-61
2022/04/18 14:50:32;;;;;;;1.53;1.30;;;15.70;32.30;;;;;;6131507;29;20476;-61
2022/04/18 14:53:35;;;;;;;1.37;1.00;;;15.70;32.20;;;;;;6131981;29;20491;-64
2022/04/18 14:56:38;;;;;;;0.87;0.80;;;15.70;32.30;;;;;;6111844;29;20489;-62
2022/04/18 14:59:42;;;;;;;1.63;1.23;;;15.80;32.40;;;;;;6108037;29;20979;-62
2022/04/18 15:02:46;;;;;;;3.50;1.27;;;15.90;32.50;;;;;;6108254;29;20583;-64
2022/04/18 15:05:49;;;;;;;1.50;0.83;;;15.90;32.50;;;;;;6108529;29;20476;-63
2022/04/18 15:08:53;;;;;;;3.00;1.20;;;15.90;32.30;;;;;;6108190;29;20503;-63
2022/04/18 15:11:56;;;;;;;2.43;1.10;;;15.90;32.50;;;;;;6118820;29;20478;-61
2022/04/18 15:14:59;;;;;;;1.33;1.13;;;16.00;32.20;;;;;;6131590;29;20839;-61
2022/04/18 15:18:03;;;;;;;1.80;1.23;;;16.00;32.20;;;;;;6131658;29;20490;-61
2022/04/18 15:21:07;;;;;;;1.47;1.30;;;16.10;32.10;;;;;;6122391;29;20554;-65
2022/04/18 15:24:10;;;;;;;1.20;1.00;;;16.00;31.90;;;;;;6131121;29;20486;-62
2022/04/18 15:27:13;;;;;;;1.50;1.40;;;16.10;32.20;;;;;;6131867;29;20480;-61
2022/04/18 15:33:39;;;;;;;1.73;0.90;;;16.20;31.80;;;;;;6132669;29;20514;-61
2022/04/18 15:36:43;;;;;;;1.20;1.10;;;16.20;31.40;;;;;;6130878;29;20432;-61
2022/04/18 15:39:46;;;;;;;1.57;0.90;;;16.20;31.50;;;;;;6131430;29;20467;-62
2022/04/18 15:42:49;;;;;;;1.90;1.47;;;16.20;30.90;;;;;;6131945;29;20810;-62
2022/04/18 15:45:52;;;;;;;0.93;0.93;;;16.00;31.40;;;;;;6132773;29;20490;-62
2022/04/18 15:48:57;;;;;;;1.30;1.20;;;15.90;31.10;;;;;;6133253;29;20482;-63
2022/04/18 15:52:00;;;;;;;1.13;1.03;;;15.70;31.80;;;;;;6132940;29;20502;-63
2022/04/18 15:55:03;;;;;;;1.53;1.00;;;15.40;32.10;;;;;;6123013;29;20795;-62
2022/04/18 15:58:07;;;;;;;0.73;0.73;;;15.30;32.60;;;;;;6107181;29;20789;-63
2022/04/18 16:01:10;;;;;;;1.07;0.97;;;15.10;33.20;;;;;;6107202;29;20483;-61
2022/04/18 16:04:15;;;;;;;1.60;1.50;;;15.10;33.10;;;;;;6106176;29;21016;-61
2022/04/18 16:07:18;;;;;;;1.57;1.20;;;15.00;33.50;;;;;;6108346;29;20476;-63
2022/04/18 16:10:23;;;;;;;3.50;1.00;;;15.00;33.50;;;;;;6107487;29;20481;-63
2022/04/18 16:13:26;;;;;;;1.40;1.30;;;14.90;34.00;;;;;;6131208;29;20479;-62
2022/04/18 16:16:32;;;;;;;1.57;1.17;;;14.80;34.10;;;;;;6130121;29;20559;-62
2022/04/18 16:19:36;;;;;;;2.70;1.60;;;14.70;34.10;;;;;;6130049;29;20482;-61
2022/04/18 16:22:40;;;;;;;1.43;1.17;;;14.70;34.30;;;;;;6121362;29;20483;-62
2022/04/18 16:25:43;;;;;;;1.23;1.13;;;14.60;34.50;;;;;;6131150;29;20486;-62
2022/04/18 16:28:46;;;;;;;1.20;1.00;;;14.50;34.80;;;;;;6130587;29;20826;-61
2022/04/18 16:31:51;;;;;;;1.77;1.00;;;14.40;34.50;;;;;;6130820;29;20491;-62
2022/04/18 16:34:55;;;;;;;1.97;1.17;;;14.30;34.90;;;;;;6130912;29;20535;-62
2022/04/18 16:37:58;;;;;;;1.57;1.47;;;14.30;35.50;;;;;;6130019;29;20482;-62
2022/04/18 16:47:42;;;;;;;1.43;1.33;;;14.00;36.20;;;;;;6129911;29;20480;-64